createdAt,value
2018-09-14T00:00:51.367Z,15.90
2018-09-14T00:03:19.664Z,15.90
2018-09-14T00:05:47.936Z,15.90
2018-09-14T00:08:16.212Z,15.90
2018-09-14T00:10:44.508Z,15.90
2018-09-14T00:13:12.788Z,15.90
2018-09-14T00:15:41.044Z,15.90
2018-09-14T00:18:09.344Z,15.90
2018-09-14T00:20:37.610Z,15.90
2018-09-14T00:23:05.876Z,15.90
2018-09-14T00:25:34.170Z,15.90
2018-09-14T00:28:02.444Z,15.80
2018-09-14T00:30:30.729Z,15.80
2018-09-14T00:32:59.012Z,15.80
2018-09-14T00:35:27.384Z,15.80
2018-09-14T00:37:55.646Z,15.80
2018-09-14T00:40:23.921Z,15.80
2018-09-14T00:42:52.200Z,15.70
2018-09-14T00:45:20.470Z,15.70
2018-09-14T00:47:48.770Z,15.70
2018-09-14T00:50:17.071Z,15.70
2018-09-14T00:52:45.396Z,15.70
2018-09-14T00:55:13.655Z,15.70
2018-09-14T00:57:41.914Z,15.60
2018-09-14T01:00:10.205Z,15.70
2018-09-14T01:02:38.484Z,15.70
2018-09-14T01:05:06.895Z,15.70
2018-09-14T01:07:35.907Z,15.70
2018-09-14T01:10:05.360Z,15.70
2018-09-14T01:12:33.662Z,15.70
2018-09-14T01:15:01.933Z,15.70
2018-09-14T01:17:30.223Z,15.70
2018-09-14T01:19:58.488Z,15.70
2018-09-14T01:22:26.767Z,15.70
2018-09-14T01:24:55.054Z,15.70
2018-09-14T01:27:23.360Z,15.80
2018-09-14T01:29:51.768Z,15.70
2018-09-14T01:32:20.061Z,15.80
2018-09-14T01:34:48.320Z,15.70
2018-09-14T01:37:16.685Z,15.80
2018-09-14T01:39:44.978Z,15.70
2018-09-14T01:42:13.268Z,15.80
2018-09-14T01:44:41.584Z,15.70
2018-09-14T01:47:09.860Z,15.70
2018-09-14T01:49:38.140Z,15.70
2018-09-14T01:52:06.461Z,15.70
2018-09-14T01:54:34.733Z,15.70
2018-09-14T01:57:03.016Z,15.70
2018-09-14T01:59:31.290Z,15.60
2018-09-14T02:01:59.568Z,15.70
2018-09-14T02:04:27.840Z,15.70
2018-09-14T02:06:56.137Z,15.70
2018-09-14T02:09:24.416Z,15.60
2018-09-14T02:11:52.692Z,15.60
2018-09-14T02:14:20.976Z,15.60
2018-09-14T02:16:49.247Z,15.60
2018-09-14T02:19:17.506Z,15.60
2018-09-14T02:21:45.776Z,15.50
2018-09-14T02:24:14.056Z,15.60
2018-09-14T02:26:42.332Z,15.60
2018-09-14T02:29:10.602Z,15.50
2018-09-14T02:31:38.867Z,15.50
2018-09-14T02:34:07.128Z,15.50
2018-09-14T02:36:35.388Z,15.50
2018-09-14T02:39:04.389Z,15.50
2018-09-14T02:41:32.657Z,15.50
2018-09-14T02:44:00.939Z,15.40
2018-09-14T02:46:29.315Z,15.50
2018-09-14T02:48:57.489Z,15.50
2018-09-14T02:51:25.763Z,15.40
2018-09-14T02:53:54.068Z,15.40
2018-09-14T02:56:22.344Z,15.40
2018-09-14T02:58:50.613Z,15.40
2018-09-14T03:01:18.913Z,15.40
2018-09-14T03:03:47.180Z,15.40
2018-09-14T03:06:15.559Z,15.40
2018-09-14T03:08:43.860Z,15.40
2018-09-14T03:11:12.153Z,15.40
2018-09-14T03:13:40.427Z,15.40
2018-09-14T03:16:08.794Z,15.30
2018-09-14T03:18:37.067Z,15.40
2018-09-14T03:21:05.364Z,15.40
2018-09-14T03:23:33.662Z,15.40
2018-09-14T03:26:01.923Z,15.30
2018-09-14T03:28:30.208Z,15.30
2018-09-14T03:30:58.469Z,15.30
2018-09-14T03:33:26.734Z,15.30
2018-09-14T03:35:54.998Z,15.20
2018-09-14T03:38:23.263Z,15.20
2018-09-14T03:40:51.533Z,15.20
2018-09-14T03:43:19.817Z,15.20
2018-09-14T03:45:48.132Z,15.20
2018-09-14T03:48:16.431Z,15.10
2018-09-14T03:50:44.688Z,15.10
2018-09-14T03:53:12.973Z,15.10
2018-09-14T03:55:41.232Z,15.10
2018-09-14T03:58:09.528Z,15.00
2018-09-14T04:00:37.791Z,15.00
2018-09-14T04:03:06.514Z,14.90
2018-09-14T04:05:34.776Z,14.80
2018-09-14T04:08:03.051Z,14.80
2018-09-14T04:10:31.328Z,14.70
2018-09-14T04:12:59.607Z,14.60
2018-09-14T04:15:27.895Z,14.50
2018-09-14T04:17:56.188Z,14.50
2018-09-14T04:20:24.444Z,14.50
2018-09-14T04:22:52.734Z,14.50
2018-09-14T04:25:20.983Z,14.50
2018-09-14T04:27:49.291Z,14.50
2018-09-14T04:30:17.562Z,14.50
2018-09-14T04:32:45.851Z,14.50
2018-09-14T04:35:14.139Z,14.40
2018-09-14T04:37:42.387Z,14.40
2018-09-14T04:40:10.667Z,14.50
2018-09-14T04:42:38.941Z,14.40
2018-09-14T04:45:07.215Z,14.40
2018-09-14T04:47:35.493Z,14.40
2018-09-14T04:50:05.363Z,14.40
2018-09-14T04:52:33.620Z,14.40
2018-09-14T04:55:01.883Z,14.40
2018-09-14T04:57:30.216Z,14.40
2018-09-14T04:59:58.435Z,14.40
2018-09-14T05:02:26.715Z,14.40
2018-09-14T05:04:54.988Z,14.40
2018-09-14T05:07:23.296Z,14.40
2018-09-14T05:09:51.544Z,14.40
2018-09-14T05:12:19.811Z,14.40
2018-09-14T05:14:48.064Z,14.40
2018-09-14T05:17:16.340Z,14.40
2018-09-14T05:19:44.615Z,14.40
2018-09-14T05:22:12.902Z,14.50
2018-09-14T05:24:41.208Z,14.50
2018-09-14T05:27:09.488Z,14.50
2018-09-14T05:29:37.769Z,14.50
2018-09-14T05:32:06.080Z,14.60
2018-09-14T05:34:34.350Z,14.60
2018-09-14T05:37:02.608Z,14.60
2018-09-14T05:39:30.887Z,14.60
2018-09-14T05:41:59.205Z,14.70
2018-09-14T05:44:27.485Z,14.70
2018-09-14T05:46:55.754Z,14.80
2018-09-14T05:49:24.020Z,14.80
2018-09-14T05:51:52.375Z,14.80
2018-09-14T05:54:20.662Z,14.90
2018-09-14T05:56:48.870Z,14.90
2018-09-14T05:59:17.180Z,14.90
2018-09-14T06:01:45.452Z,14.90
2018-09-14T06:04:13.722Z,14.90
2018-09-14T06:06:42.070Z,15.00
2018-09-14T06:09:11.889Z,15.00
2018-09-14T06:11:40.161Z,15.10
2018-09-14T06:14:08.484Z,15.20
2018-09-14T06:16:37.008Z,15.20
2018-09-14T06:19:05.508Z,15.30
2018-09-14T06:21:34.005Z,15.30
2018-09-14T06:24:02.289Z,15.30
2018-09-14T06:26:30.596Z,15.40
2018-09-14T06:28:58.867Z,15.40
2018-09-14T06:31:27.135Z,15.50
2018-09-14T06:33:55.988Z,15.50
2018-09-14T06:36:24.267Z,15.50
2018-09-14T06:38:52.548Z,15.60
2018-09-14T06:41:20.828Z,15.70
2018-09-14T06:43:49.116Z,15.70
2018-09-14T06:46:17.400Z,15.80
2018-09-14T06:48:45.766Z,15.80
2018-09-14T06:51:14.053Z,15.80
2018-09-14T06:53:42.348Z,15.90
2018-09-14T06:56:10.621Z,15.90
2018-09-14T06:58:38.910Z,15.90
2018-09-14T07:01:07.177Z,15.90
2018-09-14T07:03:35.477Z,15.90
2018-09-14T07:06:03.763Z,15.80
2018-09-14T07:08:32.053Z,15.80
2018-09-14T07:11:00.338Z,15.80
2018-09-14T07:13:28.608Z,15.90
2018-09-14T07:15:56.872Z,15.90
2018-09-14T07:18:25.157Z,16.00
2018-09-14T07:20:53.469Z,16.10
2018-09-14T07:23:22.145Z,16.10
2018-09-14T07:25:50.484Z,16.30
2018-09-14T07:28:18.844Z,16.40
2018-09-14T07:30:47.127Z,16.40
2018-09-14T07:33:15.411Z,16.50
2018-09-14T07:35:43.684Z,16.50
2018-09-14T07:38:11.978Z,16.60
2018-09-14T07:40:40.285Z,16.60
2018-09-14T07:43:08.656Z,16.60
2018-09-14T07:45:36.982Z,16.70
2018-09-14T07:48:05.274Z,16.80
2018-09-14T07:50:33.574Z,16.80
2018-09-14T07:53:01.905Z,16.80
2018-09-14T07:55:30.232Z,16.90
2018-09-14T07:57:58.500Z,17.00
2018-09-14T08:00:26.809Z,17.10
2018-09-14T08:02:55.048Z,17.20
2018-09-14T08:05:24.136Z,17.20
2018-09-14T08:07:52.438Z,17.30
2018-09-14T08:10:20.733Z,17.40
2018-09-14T08:12:49.033Z,17.40
2018-09-14T08:15:17.373Z,17.40
2018-09-14T08:17:45.937Z,17.40
2018-09-14T08:20:14.278Z,17.40
2018-09-14T08:22:42.504Z,17.40
2018-09-14T08:25:10.815Z,17.50
2018-09-14T08:27:39.215Z,17.50
2018-09-14T08:30:07.531Z,17.60
2018-09-14T08:32:35.917Z,17.60
2018-09-14T08:35:04.219Z,17.70
2018-09-14T08:37:32.519Z,17.80
2018-09-14T08:40:00.803Z,17.90
2018-09-14T08:42:29.074Z,18.00
2018-09-14T08:44:57.345Z,18.10
2018-09-14T08:47:26.521Z,18.20
2018-09-14T08:49:54.785Z,18.30
2018-09-14T08:52:23.077Z,18.30
2018-09-14T08:54:51.335Z,18.30
2018-09-14T08:57:19.632Z,18.30
2018-09-14T08:59:47.936Z,18.30
2018-09-14T09:02:16.202Z,18.30
2018-09-14T09:04:44.542Z,18.20
2018-09-14T09:07:12.868Z,18.20
2018-09-14T09:09:41.121Z,18.10
2018-09-14T09:12:09.381Z,18.00
2018-09-14T09:14:37.663Z,17.90
2018-09-14T09:17:06.015Z,17.80
2018-09-14T09:19:34.345Z,17.80
2018-09-14T09:22:02.606Z,17.80
2018-09-14T09:24:30.887Z,17.90
2018-09-14T09:26:59.157Z,17.90
2018-09-14T09:29:27.542Z,18.00
2018-09-14T09:31:55.788Z,18.20
2018-09-14T09:34:24.072Z,18.30
2018-09-14T09:36:52.352Z,18.40
2018-09-14T09:39:20.647Z,18.50
2018-09-14T09:41:48.906Z,18.50
2018-09-14T09:44:17.180Z,18.50
2018-09-14T09:46:45.458Z,18.60
2018-09-14T09:49:13.760Z,18.70
2018-09-14T09:51:42.061Z,18.70
2018-09-14T09:54:10.345Z,18.80
2018-09-14T09:56:38.691Z,18.90
2018-09-14T09:59:06.927Z,19.10
2018-09-14T10:02:38.845Z,19.30
2018-09-14T10:05:12.557Z,19.50
2018-09-14T10:07:40.876Z,19.80
2018-09-14T10:10:11.907Z,20.00
2018-09-14T10:12:40.349Z,20.20
2018-09-14T10:15:08.855Z,20.50
2018-09-14T10:17:37.141Z,20.70
2018-09-14T10:20:05.445Z,20.90
2018-09-14T10:22:34.523Z,21.10
2018-09-14T10:25:02.838Z,21.30
2018-09-14T10:27:31.086Z,21.40
2018-09-14T10:29:59.363Z,21.50
2018-09-14T10:32:27.649Z,21.50
2018-09-14T10:34:55.935Z,21.40
2018-09-14T10:37:24.205Z,21.30
2018-09-14T10:39:52.471Z,21.20
2018-09-14T10:42:20.780Z,21.10
2018-09-14T10:44:49.061Z,21.10
2018-09-14T10:47:17.385Z,21.10
2018-09-14T10:49:45.684Z,21.30
2018-09-14T10:52:14.680Z,21.40
2018-09-14T10:54:42.946Z,21.50
2018-09-14T10:57:11.223Z,21.70
2018-09-14T10:59:39.498Z,21.80
2018-09-14T11:02:07.768Z,22.00
2018-09-14T11:04:36.114Z,22.10
2018-09-14T11:07:04.368Z,22.10
2018-09-14T11:09:32.602Z,22.10
2018-09-14T11:12:00.876Z,22.20
2018-09-14T11:14:29.176Z,22.30
2018-09-14T11:16:57.469Z,22.30
2018-09-14T11:19:25.756Z,22.40
2018-09-14T11:21:54.029Z,22.40
2018-09-14T11:24:22.276Z,22.40
2018-09-14T11:26:51.054Z,22.40
2018-09-14T11:29:19.332Z,22.30
2018-09-14T11:31:47.713Z,22.20
2018-09-14T11:34:16.011Z,22.10
2018-09-14T11:36:44.349Z,22.00
2018-09-14T11:39:12.641Z,22.00
2018-09-14T11:41:41.524Z,22.00
2018-09-14T11:44:09.845Z,22.00
2018-09-14T11:46:38.230Z,22.00
2018-09-14T11:49:06.579Z,22.10
2018-09-14T11:51:34.929Z,22.10
2018-09-14T11:54:03.294Z,22.00
2018-09-14T11:56:31.577Z,21.90
2018-09-14T11:58:59.853Z,21.80
2018-09-14T12:01:28.156Z,21.70
2018-09-14T12:03:56.397Z,21.60
2018-09-14T12:06:24.694Z,21.60
2018-09-14T12:08:52.971Z,21.60
2018-09-14T12:11:21.329Z,21.70
2018-09-14T12:13:49.744Z,21.80
2018-09-14T12:16:17.966Z,22.00
2018-09-14T12:18:46.248Z,22.10
2018-09-14T12:21:14.586Z,22.10
2018-09-14T12:23:42.879Z,22.10
2018-09-14T12:26:11.157Z,22.00
2018-09-14T12:28:39.491Z,21.90
2018-09-14T12:31:07.843Z,21.90
2018-09-14T12:33:36.150Z,21.90
2018-09-14T12:36:04.544Z,21.90
2018-09-14T12:38:32.888Z,21.90
2018-09-14T12:41:01.179Z,21.90
2018-09-14T12:43:29.465Z,22.00
2018-09-14T12:45:57.741Z,22.00
2018-09-14T12:48:26.024Z,22.00
2018-09-14T12:50:54.321Z,22.00
2018-09-14T12:53:22.694Z,22.10
2018-09-14T12:55:50.968Z,22.10
2018-09-14T12:58:19.301Z,22.30
2018-09-14T13:00:47.590Z,22.30
2018-09-14T13:03:15.857Z,22.40
2018-09-14T13:05:44.158Z,22.40
2018-09-14T13:08:12.460Z,22.50
2018-09-14T13:10:40.785Z,22.50
2018-09-14T13:13:09.048Z,22.50
2018-09-14T13:15:37.358Z,22.60
2018-09-14T13:18:05.725Z,22.70
2018-09-14T13:20:34.004Z,22.90
2018-09-14T13:23:02.265Z,23.00
2018-09-14T13:25:30.751Z,23.10
2018-09-14T13:27:59.019Z,23.20
2018-09-14T13:30:27.321Z,23.20
2018-09-14T13:32:55.584Z,23.20
2018-09-14T13:35:24.659Z,23.20
2018-09-14T13:37:54.006Z,23.20
2018-09-14T13:40:23.141Z,23.20
2018-09-14T13:42:51.649Z,23.30
2018-09-14T13:45:19.975Z,23.40
2018-09-14T13:47:48.817Z,23.40
2018-09-14T13:50:17.140Z,23.40
2018-09-14T13:52:45.512Z,23.30
2018-09-14T13:55:13.760Z,23.10
2018-09-14T13:57:42.054Z,23.00
2018-09-14T14:00:10.366Z,22.90
2018-09-14T14:02:38.678Z,22.80
2018-09-14T14:05:06.961Z,22.70
2018-09-14T14:07:35.293Z,22.60
2018-09-14T14:10:03.639Z,22.60
2018-09-14T14:12:32.136Z,22.50
2018-09-14T14:15:00.412Z,22.40
2018-09-14T14:17:28.813Z,22.40
2018-09-14T14:19:57.065Z,22.50
2018-09-14T14:22:25.315Z,22.50
2018-09-14T14:24:54.474Z,22.50
2018-09-14T14:27:22.763Z,22.50
2018-09-14T14:29:51.023Z,22.50
2018-09-14T14:32:19.305Z,22.40
2018-09-14T14:34:47.641Z,22.30
2018-09-14T14:37:15.928Z,22.20
2018-09-14T14:39:44.234Z,22.00
2018-09-14T14:42:12.536Z,21.90
2018-09-14T14:44:40.930Z,21.80
2018-09-14T14:47:09.324Z,21.80
2018-09-14T14:49:38.202Z,22.00
2018-09-14T14:52:06.976Z,22.10
2018-09-14T14:54:35.244Z,22.10
2018-09-14T14:57:03.580Z,22.10
2018-09-14T14:59:31.868Z,22.00
2018-09-14T15:02:00.267Z,22.00
2018-09-14T15:04:28.550Z,22.10
2018-09-14T15:06:56.884Z,22.00
2018-09-14T15:09:25.240Z,21.80
2018-09-14T15:11:54.000Z,21.80
2018-09-14T15:14:22.380Z,21.80
2018-09-14T15:16:50.648Z,21.70
2018-09-14T15:19:19.007Z,21.60
2018-09-14T15:21:48.064Z,21.60
2018-09-14T15:24:16.382Z,21.50
2018-09-14T15:26:44.663Z,21.50
2018-09-14T15:29:12.938Z,21.40
2018-09-14T15:31:41.296Z,21.40
2018-09-14T15:34:09.614Z,21.30
2018-09-14T15:36:37.924Z,21.30
2018-09-14T15:39:09.403Z,21.30
2018-09-14T15:41:37.780Z,21.30
2018-09-14T15:44:06.675Z,21.30
2018-09-14T15:46:35.018Z,21.30
2018-09-14T15:49:03.372Z,21.30
2018-09-14T15:51:31.709Z,21.40
2018-09-14T15:54:00.212Z,21.30
2018-09-14T15:56:28.504Z,21.30
2018-09-14T15:58:56.940Z,21.30
2018-09-14T16:01:25.241Z,21.30
2018-09-14T16:03:53.674Z,21.20
2018-09-14T16:06:22.527Z,21.10
2018-09-14T16:08:50.835Z,21.00
2018-09-14T16:11:19.171Z,21.00
2018-09-14T16:13:48.033Z,20.90
2018-09-14T16:16:16.325Z,20.80
2018-09-14T16:18:44.680Z,20.80
2018-09-14T16:21:12.973Z,20.70
2018-09-14T16:23:41.472Z,20.70
2018-09-14T16:26:09.819Z,20.60
2018-09-14T16:28:38.116Z,20.50
2018-09-14T16:31:06.474Z,20.50
2018-09-14T16:33:34.765Z,20.40
2018-09-14T16:36:03.085Z,20.40
2018-09-14T16:38:31.372Z,20.30
2018-09-14T16:40:59.692Z,20.30
2018-09-14T16:43:27.988Z,20.30
2018-09-14T16:45:56.260Z,20.30
2018-09-14T16:48:24.619Z,20.30
2018-09-14T16:50:52.888Z,20.20
2018-09-14T16:53:21.185Z,20.20
2018-09-14T16:58:16.595Z,20.10
2018-09-14T17:00:45.028Z,20.00
2018-09-14T17:03:13.376Z,19.90
2018-09-14T17:05:41.665Z,19.90
2018-09-14T17:08:11.132Z,19.80
2018-09-14T17:10:39.455Z,19.80
2018-09-14T17:13:07.783Z,19.70
2018-09-14T17:15:36.083Z,19.70
2018-09-14T17:18:04.397Z,19.70
2018-09-14T17:20:32.747Z,19.60
2018-09-14T17:23:01.044Z,19.60
2018-09-14T17:25:29.418Z,19.50
2018-09-14T17:27:57.841Z,19.50
2018-09-14T17:30:26.550Z,19.40
2018-09-14T17:32:54.887Z,19.40
2018-09-14T17:35:23.264Z,19.40
2018-09-14T17:37:51.557Z,19.40
2018-09-14T17:40:19.912Z,19.30
2018-09-14T17:42:48.317Z,19.30
2018-09-14T17:45:16.666Z,19.30
2018-09-14T17:47:45.029Z,19.20
2018-09-14T17:50:13.425Z,19.20
2018-09-14T17:52:41.787Z,19.20
2018-09-14T17:55:10.093Z,19.20
2018-09-14T17:57:38.435Z,19.10
2018-09-14T18:00:07.214Z,19.10
2018-09-14T18:02:35.636Z,19.00
2018-09-14T18:05:04.041Z,19.00
2018-09-14T18:07:32.402Z,19.00
2018-09-14T18:10:00.866Z,19.00
2018-09-14T18:12:29.332Z,19.00
2018-09-14T18:14:57.730Z,18.90
2018-09-14T18:17:26.108Z,18.90
2018-09-14T18:19:54.446Z,18.80
2018-09-14T18:22:22.844Z,18.80
2018-09-14T18:24:51.206Z,18.80
2018-09-14T18:27:19.899Z,18.70
2018-09-14T18:29:48.362Z,18.70
2018-09-14T18:32:16.750Z,18.70
2018-09-14T18:34:45.160Z,18.70
2018-09-14T18:37:13.676Z,18.60
2018-09-14T18:39:42.212Z,18.60
2018-09-14T18:42:10.934Z,18.50
2018-09-14T18:44:40.546Z,18.50
2018-09-14T18:47:09.927Z,18.40
2018-09-14T18:49:38.622Z,18.30
2018-09-14T18:52:07.071Z,18.30
2018-09-14T18:54:35.870Z,18.30
2018-09-14T18:57:04.349Z,18.20
2018-09-14T18:59:32.991Z,18.10
2018-09-14T19:02:01.663Z,18.00
2018-09-14T19:04:31.151Z,18.00
2018-09-14T19:06:59.930Z,17.90
2018-09-14T19:09:28.643Z,17.80
2018-09-14T19:11:57.323Z,17.80
2018-09-14T19:14:25.786Z,17.70
2018-09-14T19:16:54.229Z,17.70
2018-09-14T19:19:23.015Z,17.70
2018-09-14T19:21:51.810Z,17.60
2018-09-14T19:24:20.279Z,17.70
2018-09-14T19:26:49.771Z,17.60
2018-09-14T19:29:18.569Z,17.60
2018-09-14T19:31:47.485Z,17.50
2018-09-14T19:34:15.961Z,17.40
2018-09-14T19:36:44.617Z,17.40
2018-09-14T19:39:13.982Z,17.40
2018-09-14T19:41:43.599Z,17.40
2018-09-14T19:44:12.450Z,17.30
2018-09-14T19:46:41.552Z,17.30
2018-09-14T19:49:10.163Z,17.20
2018-09-14T19:51:39.033Z,17.20
2018-09-14T19:54:07.716Z,17.10
2018-09-14T19:56:36.656Z,17.10
2018-09-14T19:59:06.855Z,17.10
2018-09-14T20:01:35.618Z,17.00
2018-09-14T20:04:04.011Z,17.00
2018-09-14T20:06:32.943Z,17.00
2018-09-14T20:09:01.319Z,17.00
2018-09-14T20:11:30.098Z,16.90
2018-09-14T20:13:58.888Z,16.90
2018-09-14T20:16:27.303Z,16.80
2018-09-14T20:18:56.142Z,16.70
2018-09-14T20:21:25.018Z,16.80
2018-09-14T20:23:53.445Z,16.70
2018-09-14T20:26:21.941Z,16.70
2018-09-14T20:28:50.476Z,16.80
2018-09-14T20:31:19.125Z,16.80
2018-09-14T20:33:47.461Z,16.80
2018-09-14T20:36:16.808Z,16.70
2018-09-14T20:38:45.168Z,16.60
2018-09-14T20:41:13.529Z,16.60
2018-09-14T20:43:43.175Z,16.50
2018-09-14T20:46:11.564Z,16.40
2018-09-14T20:48:40.219Z,16.50
2018-09-14T20:51:08.546Z,16.50
2018-09-14T20:53:37.029Z,16.50
2018-09-14T20:56:05.374Z,16.50
2018-09-14T20:58:33.714Z,16.50
2018-09-14T21:01:02.110Z,16.50
2018-09-14T21:03:30.424Z,16.60
2018-09-14T21:05:58.768Z,16.60
2018-09-14T21:08:27.077Z,16.60
2018-09-14T21:10:55.430Z,16.50
2018-09-14T21:13:23.859Z,16.50
2018-09-14T21:15:52.377Z,16.40
2018-09-14T21:18:20.872Z,16.30
2018-09-14T21:20:49.351Z,16.30
2018-09-14T21:23:18.606Z,16.20
2018-09-14T21:25:46.932Z,16.30
2018-09-14T21:28:15.720Z,16.20
2018-09-14T21:30:44.326Z,16.20
2018-09-14T21:33:14.421Z,16.20
2018-09-14T21:35:42.733Z,16.30
2018-09-14T21:38:11.206Z,16.30
2018-09-14T21:40:39.527Z,16.30
2018-09-14T21:43:07.784Z,16.20
2018-09-14T21:45:36.071Z,16.10
2018-09-14T21:48:04.368Z,16.10
2018-09-14T21:50:33.612Z,16.00
2018-09-14T21:53:01.891Z,16.00
2018-09-14T21:55:30.223Z,15.90
2018-09-14T21:57:58.584Z,15.90
2018-09-14T22:00:32.348Z,15.80
2018-09-14T22:03:00.680Z,15.80
2018-09-14T22:05:28.948Z,15.70
2018-09-14T22:08:00.385Z,15.60
2018-09-14T22:10:28.646Z,15.50
2018-09-14T22:12:57.459Z,15.50
2018-09-14T22:15:25.739Z,15.40
2018-09-14T22:17:54.311Z,15.30
2018-09-14T22:20:22.592Z,15.20
2018-09-14T22:22:50.883Z,15.20
2018-09-14T22:25:19.183Z,15.10
2018-09-14T22:27:47.497Z,15.10
2018-09-14T22:30:15.760Z,15.00
2018-09-14T22:32:44.038Z,14.90
2018-09-14T22:35:13.043Z,14.90
2018-09-14T22:37:41.336Z,14.80
2018-09-14T22:40:10.020Z,14.70
2018-09-14T22:42:38.286Z,14.60
2018-09-14T22:45:06.602Z,14.60
2018-09-14T22:47:34.876Z,14.50
2018-09-14T22:50:03.208Z,14.40
2018-09-14T22:52:31.552Z,14.40
2018-09-14T22:54:59.845Z,14.30
2018-09-14T22:57:28.130Z,14.20
2018-09-14T22:59:56.412Z,14.20
2018-09-14T23:02:24.944Z,14.10
2018-09-14T23:04:53.227Z,14.00
2018-09-14T23:07:21.509Z,13.90
2018-09-14T23:09:49.816Z,13.90
2018-09-14T23:12:18.159Z,13.90
2018-09-14T23:14:46.436Z,13.80
2018-09-14T23:17:14.742Z,13.70
2018-09-14T23:19:43.027Z,13.80
2018-09-14T23:22:12.130Z,13.70
2018-09-14T23:24:40.512Z,13.70
2018-09-14T23:27:08.823Z,13.60
2018-09-14T23:29:37.111Z,13.60
2018-09-14T23:32:05.912Z,13.60
2018-09-14T23:34:34.222Z,13.50
2018-09-14T23:37:02.503Z,13.40
2018-09-14T23:39:30.855Z,13.40
2018-09-14T23:41:59.136Z,13.30
2018-09-14T23:44:27.450Z,13.30
2018-09-14T23:46:55.733Z,13.20
2018-09-14T23:49:23.999Z,13.20
2018-09-14T23:51:52.294Z,13.10
2018-09-14T23:54:20.640Z,13.10
2018-09-14T23:56:48.892Z,13.00
2018-09-14T23:59:17.174Z,13.00
